St. Catharines Fifth St

*Note: All times are displayed in the local standard time of the station location.
**Rain - Equipment is designed to accurately record liquid precipitation; under conditions when precipitation is not in liquid form, the data displayed may not properly reflect rainfall values.

Date Max Temp
(°C)
Min Temp
(°C)
Avg Temp
(°C)
Rain (mm) Avg RH (%)
Sun, Dec 10, 2017 -1.4 -3.2 -2.3 0.0 74.2
Sat, Dec 09, 2017 1.8 -3.6 -0.7 0.0 65.6
Fri, Dec 08, 2017 0.0 -4.7 -2.0 0.0 64.6
Thu, Dec 07, 2017 1.6 -3.5 -0.9 0.0 63.7
Wed, Dec 06, 2017 4.1 -1.0 1.4 0.0 55.8
Tue, Dec 05, 2017 11.4 0.5 7.4 5.0 71.6
Mon, Dec 04, 2017 11.6 -2.5 5.4 0.2 74.7
DateTime Avg Temp (°C) Rain (mm) RH (%)
Mon, Dec 11, 2017 02:00 -3.0 0.0 89.3
Mon, Dec 11, 2017 01:00 -2.0 0.0 76.8
Mon, Dec 11, 2017 00:00 -2.3 0.0 75.8
Sun, Dec 10, 2017 23:00 -2.7 0.0 76.3
Sun, Dec 10, 2017 22:00 -2.5 0.0 74.8
Sun, Dec 10, 2017 21:00 -2.4 0.0 73.0
Sun, Dec 10, 2017 20:00 -2.2 0.0 70.5
Sun, Dec 10, 2017 19:00 -2.1 0.0 67.3
Sun, Dec 10, 2017 18:00 -1.7 0.0 62.3
Sun, Dec 10, 2017 17:00 -1.7 0.0 66.5
Sun, Dec 10, 2017 16:00 -1.7 0.0 69.0
Sun, Dec 10, 2017 15:00 -1.5 0.0 71.3
Sun, Dec 10, 2017 14:00 -1.6 0.0 69.8
Sun, Dec 10, 2017 13:00 -1.6 0.0 69.3
Sun, Dec 10, 2017 12:00 -1.7 0.0 66.5
Sun, Dec 10, 2017 11:00 -2.1 0.0 64.8
Sun, Dec 10, 2017 10:00 -2.5 0.0 67.0
Sun, Dec 10, 2017 09:00 -2.9 0.0 68.8
Sun, Dec 10, 2017 08:00 -3.0 0.0 69.3
Sun, Dec 10, 2017 07:00 -3.0 0.0 79.8
Sun, Dec 10, 2017 06:00 -3.0 0.0 82.5
Sun, Dec 10, 2017 05:00 -2.3 0.0 85.3
Sun, Dec 10, 2017 04:00 -2.5 0.0 88.0
Sun, Dec 10, 2017 03:00 -2.4 0.0 86.8
Sun, Dec 10, 2017 02:00 -2.5 0.0 88.5
Sun, Dec 10, 2017 01:00 -2.4 0.0 87.8
Sun, Dec 10, 2017 00:00 -2.6 0.0 89.3
Sat, Dec 09, 2017 23:00 -3.1 0.0 89.8
Sat, Dec 09, 2017 22:00 -2.9 0.0 87.3
Sat, Dec 09, 2017 21:00 -2.1 0.0 80.5
Sat, Dec 09, 2017 20:00 -1.1 0.0 69.5
Sat, Dec 09, 2017 19:00 -0.5 0.0 61.0
Sat, Dec 09, 2017 18:00 -0.7 0.0 63.5
Sat, Dec 09, 2017 17:00 -0.1 0.0 58.8
Sat, Dec 09, 2017 16:00 0.6 0.0 53.3
Sat, Dec 09, 2017 15:00 0.6 0.0 53.0
Sat, Dec 09, 2017 14:00 0.5 0.0 54.0
Sat, Dec 09, 2017 13:00 0.3 0.0 53.8
Sat, Dec 09, 2017 12:00 0.8 0.0 51.5
Sat, Dec 09, 2017 11:00 1.2 0.0 52.8
Sat, Dec 09, 2017 10:00 0.5 0.0 62.3
Sat, Dec 09, 2017 09:00 -1.2 0.0 72.5
Sat, Dec 09, 2017 08:00 -1.3 0.0 74.0
Sat, Dec 09, 2017 07:00 -0.7 0.0 73.8
Sat, Dec 09, 2017 06:00 -0.4 0.0 72.0
Sat, Dec 09, 2017 05:00 -1.1 0.0 63.3
Sat, Dec 09, 2017 04:00 -1.2 0.0 60.5
Sat, Dec 09, 2017 03:00 -1.4 0.0 61.0


asterix Register now to access more data! asterix